sensor_id;sensor_type;location;lat;lon;timestamp;P1;durP1;ratioP1;P2;durP2;ratioP2
39098;SDS011;24844;52.380;7.018;2023-05-29T00:01:36;23.95;;;5.22;;
39098;SDS011;24844;52.380;7.018;2023-05-29T00:04:02;32.35;;;4.75;;
39098;SDS011;24844;52.380;7.018;2023-05-29T00:06:28;33.75;;;5.10;;
39098;SDS011;24844;52.380;7.018;2023-05-29T00:08:54;25.33;;;3.72;;
39098;SDS011;24844;52.380;7.018;2023-05-29T00:11:20;24.83;;;4.50;;
39098;SDS011;24844;52.380;7.018;2023-05-29T00:13:46;24.35;;;4.18;;
39098;SDS011;24844;52.380;7.018;2023-05-29T00:16:12;21.05;;;4.15;;
39098;SDS011;24844;52.380;7.018;2023-05-29T00:18:37;28.30;;;4.03;;
39098;SDS011;24844;52.380;7.018;2023-05-29T00:21:10;22.65;;;4.30;;
39098;SDS011;24844;52.380;7.018;2023-05-29T00:23:36;26.95;;;4.68;;
39098;SDS011;24844;52.380;7.018;2023-05-29T00:26:01;31.92;;;4.00;;
39098;SDS011;24844;52.380;7.018;2023-05-29T00:28:27;27.90;;;4.43;;
39098;SDS011;24844;52.380;7.018;2023-05-29T00:30:52;24.05;;;4.22;;
39098;SDS011;24844;52.380;7.018;2023-05-29T00:33:18;19.08;;;3.42;;
39098;SDS011;24844;52.380;7.018;2023-05-29T00:35:43;33.35;;;4.72;;
39098;SDS011;24844;52.380;7.018;2023-05-29T00:38:10;27.45;;;4.75;;
39098;SDS011;24844;52.380;7.018;2023-05-29T00:40:35;35.30;;;4.90;;
39098;SDS011;24844;52.380;7.018;2023-05-29T00:43:01;25.27;;;4.63;;
39098;SDS011;24844;52.380;7.018;2023-05-29T00:45:26;25.92;;;4.20;;
39098;SDS011;24844;52.380;7.018;2023-05-29T00:47:52;26.30;;;5.75;;
39098;SDS011;24844;52.380;7.018;2023-05-29T00:50:19;26.25;;;3.88;;
39098;SDS011;24844;52.380;7.018;2023-05-29T00:52:46;23.67;;;4.32;;
39098;SDS011;24844;52.380;7.018;2023-05-29T00:55:12;28.05;;;5.35;;
39098;SDS011;24844;52.380;7.018;2023-05-29T00:57:39;21.58;;;4.10;;
39098;SDS011;24844;52.380;7.018;2023-05-29T01:00:05;25.40;;;4.93;;
39098;SDS011;24844;52.380;7.018;2023-05-29T01:02:38;24.90;;;4.18;;
39098;SDS011;24844;52.380;7.018;2023-05-29T01:05:09;26.02;;;4.28;;
39098;SDS011;24844;52.380;7.018;2023-05-29T01:07:34;25.95;;;4.57;;
39098;SDS011;24844;52.380;7.018;2023-05-29T01:10:00;21.35;;;4.43;;
39098;SDS011;24844;52.380;7.018;2023-05-29T01:12:36;23.02;;;4.65;;
39098;SDS011;24844;52.380;7.018;2023-05-29T01:20:53;22.52;;;4.72;;
39098;SDS011;24844;52.380;7.018;2023-05-29T01:28:57;20.67;;;3.80;;
39098;SDS011;24844;52.380;7.018;2023-05-29T01:31:27;20.35;;;4.20;;
39098;SDS011;24844;52.380;7.018;2023-05-29T01:33:55;20.52;;;3.97;;
39098;SDS011;24844;52.380;7.018;2023-05-29T01:36:22;17.08;;;3.33;;
39098;SDS011;24844;52.380;7.018;2023-05-29T01:38:49;19.02;;;3.83;;
39098;SDS011;24844;52.380;7.018;2023-05-29T01:41:16;24.20;;;4.90;;
39098;SDS011;24844;52.380;7.018;2023-05-29T01:43:46;27.30;;;4.18;;
39098;SDS011;24844;52.380;7.018;2023-05-29T01:46:12;20.98;;;4.70;;
39098;SDS011;24844;52.380;7.018;2023-05-29T01:48:40;27.10;;;5.07;;
39098;SDS011;24844;52.380;7.018;2023-05-29T01:51:06;29.40;;;5.15;;
39098;SDS011;24844;52.380;7.018;2023-05-29T01:53:33;22.13;;;5.10;;
39098;SDS011;24844;52.380;7.018;2023-05-29T01:55:58;35.50;;;4.95;;
39098;SDS011;24844;52.380;7.018;2023-05-29T01:58:25;26.20;;;4.25;;
39098;SDS011;24844;52.380;7.018;2023-05-29T02:00:52;22.35;;;4.70;;
39098;SDS011;24844;52.380;7.018;2023-05-29T02:03:20;31.08;;;5.25;;
39098;SDS011;24844;52.380;7.018;2023-05-29T02:05:46;26.73;;;4.32;;
39098;SDS011;24844;52.380;7.018;2023-05-29T02:08:11;29.35;;;4.88;;
39098;SDS011;24844;52.380;7.018;2023-05-29T02:10:37;23.63;;;5.00;;
39098;SDS011;24844;52.380;7.018;2023-05-29T02:13:02;27.65;;;4.18;;
39098;SDS011;24844;52.380;7.018;2023-05-29T02:15:28;21.98;;;3.80;;
39098;SDS011;24844;52.380;7.018;2023-05-29T02:17:54;22.13;;;4.55;;
39098;SDS011;24844;52.380;7.018;2023-05-29T02:20:19;28.45;;;4.47;;
39098;SDS011;24844;52.380;7.018;2023-05-29T02:22:45;27.40;;;4.13;;
39098;SDS011;24844;52.380;7.018;2023-05-29T02:25:11;25.13;;;4.82;;
39098;SDS011;24844;52.380;7.018;2023-05-29T02:27:36;22.92;;;4.22;;
39098;SDS011;24844;52.380;7.018;2023-05-29T02:30:02;25.50;;;4.30;;
39098;SDS011;24844;52.380;7.018;2023-05-29T02:32:28;18.15;;;4.15;;
39098;SDS011;24844;52.380;7.018;2023-05-29T02:34:54;25.25;;;3.85;;
39098;SDS011;24844;52.380;7.018;2023-05-29T02:37:20;26.90;;;4.88;;
39098;SDS011;24844;52.380;7.018;2023-05-29T02:39:45;23.73;;;4.45;;
39098;SDS011;24844;52.380;7.018;2023-05-29T02:42:11;24.67;;;4.88;;
39098;SDS011;24844;52.380;7.018;2023-05-29T02:44:36;18.77;;;4.03;;
39098;SDS011;24844;52.380;7.018;2023-05-29T02:47:02;21.73;;;4.38;;
39098;SDS011;24844;52.380;7.018;2023-05-29T02:49:27;25.33;;;4.10;;
39098;SDS011;24844;52.380;7.018;2023-05-29T02:51:53;25.15;;;4.30;;
39098;SDS011;24844;52.380;7.018;2023-05-29T02:54:22;22.05;;;4.40;;
39098;SDS011;24844;52.380;7.018;2023-05-29T02:56:48;26.73;;;4.70;;
39098;SDS011;24844;52.380;7.018;2023-05-29T02:59:14;23.70;;;4.25;;
39098;SDS011;24844;52.380;7.018;2023-05-29T03:01:39;21.58;;;5.00;;
39098;SDS011;24844;52.380;7.018;2023-05-29T03:04:05;25.75;;;4.25;;
39098;SDS011;24844;52.380;7.018;2023-05-29T03:06:31;21.95;;;4.65;;
39098;SDS011;24844;52.380;7.018;2023-05-29T03:08:57;27.27;;;4.50;;
39098;SDS011;24844;52.380;7.018;2023-05-29T03:11:24;20.60;;;3.97;;
39098;SDS011;24844;52.380;7.018;2023-05-29T03:13:50;29.98;;;4.68;;
39098;SDS011;24844;52.380;7.018;2023-05-29T03:16:15;26.13;;;4.53;;
39098;SDS011;24844;52.380;7.018;2023-05-29T03:18:41;26.90;;;4.72;;
39098;SDS011;24844;52.380;7.018;2023-05-29T03:21:07;29.63;;;5.00;;
39098;SDS011;24844;52.380;7.018;2023-05-29T03:23:33;23.27;;;4.88;;
39098;SDS011;24844;52.380;7.018;2023-05-29T03:25:58;23.98;;;4.68;;
39098;SDS011;24844;52.380;7.018;2023-05-29T03:28:24;21.33;;;4.32;;
39098;SDS011;24844;52.380;7.018;2023-05-29T03:30:50;23.48;;;4.13;;
39098;SDS011;24844;52.380;7.018;2023-05-29T03:33:16;23.80;;;4.20;;
39098;SDS011;24844;52.380;7.018;2023-05-29T03:35:42;30.95;;;4.82;;
39098;SDS011;24844;52.380;7.018;2023-05-29T03:38:07;31.55;;;4.88;;
39098;SDS011;24844;52.380;7.018;2023-05-29T03:40:33;27.85;;;4.63;;
39098;SDS011;24844;52.380;7.018;2023-05-29T03:42:58;20.08;;;3.92;;
39098;SDS011;24844;52.380;7.018;2023-05-29T03:45:24;31.13;;;4.25;;
39098;SDS011;24844;52.380;7.018;2023-05-29T03:47:50;28.40;;;5.25;;
39098;SDS011;24844;52.380;7.018;2023-05-29T03:50:16;22.98;;;3.97;;
39098;SDS011;24844;52.380;7.018;2023-05-29T03:52:42;24.48;;;4.32;;
39098;SDS011;24844;52.380;7.018;2023-05-29T03:55:10;20.65;;;4.70;;
39098;SDS011;24844;52.380;7.018;2023-05-29T03:57:38;24.20;;;4.53;;
39098;SDS011;24844;52.380;7.018;2023-05-29T04:00:06;21.45;;;3.75;;
39098;SDS011;24844;52.380;7.018;2023-05-29T04:02:34;34.10;;;5.10;;
39098;SDS011;24844;52.380;7.018;2023-05-29T04:04:59;27.45;;;3.95;;
39098;SDS011;24844;52.380;7.018;2023-05-29T04:07:25;20.35;;;3.80;;
39098;SDS011;24844;52.380;7.018;2023-05-29T04:09:50;25.35;;;4.43;;
39098;SDS011;24844;52.380;7.018;2023-05-29T04:12:16;20.15;;;3.47;;
39098;SDS011;24844;52.380;7.018;2023-05-29T04:14:42;31.92;;;4.53;;
39098;SDS011;24844;52.380;7.018;2023-05-29T04:17:07;20.42;;;3.72;;
39098;SDS011;24844;52.380;7.018;2023-05-29T04:19:33;24.77;;;4.40;;
39098;SDS011;24844;52.380;7.018;2023-05-29T04:21:58;23.35;;;4.30;;
39098;SDS011;24844;52.380;7.018;2023-05-29T04:24:24;22.40;;;3.78;;
39098;SDS011;24844;52.380;7.018;2023-05-29T04:26:49;21.73;;;3.90;;
39098;SDS011;24844;52.380;7.018;2023-05-29T04:29:16;23.40;;;3.75;;
39098;SDS011;24844;52.380;7.018;2023-05-29T04:31:41;20.55;;;4.55;;
39098;SDS011;24844;52.380;7.018;2023-05-29T04:34:07;16.10;;;3.35;;
39098;SDS011;24844;52.380;7.018;2023-05-29T04:36:33;18.88;;;3.17;;
39098;SDS011;24844;52.380;7.018;2023-05-29T04:39:03;20.60;;;3.85;;
39098;SDS011;24844;52.380;7.018;2023-05-29T04:41:30;17.35;;;3.03;;
39098;SDS011;24844;52.380;7.018;2023-05-29T04:43:56;15.63;;;3.00;;
39098;SDS011;24844;52.380;7.018;2023-05-29T04:46:23;21.02;;;3.85;;
39098;SDS011;24844;52.380;7.018;2023-05-29T04:48:50;18.55;;;3.50;;
39098;SDS011;24844;52.380;7.018;2023-05-29T04:51:22;20.30;;;3.95;;
39098;SDS011;24844;52.380;7.018;2023-05-29T04:56:14;19.80;;;3.40;;
39098;SDS011;24844;52.380;7.018;2023-05-29T04:58:41;14.55;;;3.78;;
39098;SDS011;24844;52.380;7.018;2023-05-29T05:01:07;19.17;;;3.60;;
39098;SDS011;24844;52.380;7.018;2023-05-29T05:03:42;18.95;;;3.92;;
39098;SDS011;24844;52.380;7.018;2023-05-29T05:06:07;15.10;;;3.58;;
39098;SDS011;24844;52.380;7.018;2023-05-29T05:08:33;15.63;;;3.78;;
39098;SDS011;24844;52.380;7.018;2023-05-29T05:11:00;18.98;;;3.72;;
39098;SDS011;24844;52.380;7.018;2023-05-29T05:13:26;18.70;;;3.88;;
39098;SDS011;24844;52.380;7.018;2023-05-29T05:15:52;16.90;;;2.90;;
39098;SDS011;24844;52.380;7.018;2023-05-29T05:18:18;19.98;;;3.45;;
39098;SDS011;24844;52.380;7.018;2023-05-29T05:20:44;14.93;;;3.22;;
39098;SDS011;24844;52.380;7.018;2023-05-29T05:23:10;21.20;;;4.05;;
39098;SDS011;24844;52.380;7.018;2023-05-29T05:25:36;14.13;;;3.30;;
39098;SDS011;24844;52.380;7.018;2023-05-29T05:28:03;15.57;;;3.33;;
39098;SDS011;24844;52.380;7.018;2023-05-29T05:30:33;20.17;;;4.00;;
39098;SDS011;24844;52.380;7.018;2023-05-29T05:32:58;15.85;;;3.72;;
39098;SDS011;24844;52.380;7.018;2023-05-29T05:35:24;15.73;;;2.90;;
39098;SDS011;24844;52.380;7.018;2023-05-29T05:37:50;19.85;;;3.60;;
39098;SDS011;24844;52.380;7.018;2023-05-29T05:40:15;17.83;;;3.60;;
39098;SDS011;24844;52.380;7.018;2023-05-29T05:42:41;16.15;;;3.03;;
39098;SDS011;24844;52.380;7.018;2023-05-29T05:45:07;13.68;;;2.88;;
39098;SDS011;24844;52.380;7.018;2023-05-29T05:47:33;23.67;;;4.20;;
39098;SDS011;24844;52.380;7.018;2023-05-29T05:49:59;13.50;;;3.20;;
39098;SDS011;24844;52.380;7.018;2023-05-29T05:52:24;17.90;;;3.38;;
39098;SDS011;24844;52.380;7.018;2023-05-29T05:54:55;17.67;;;4.00;;
39098;SDS011;24844;52.380;7.018;2023-05-29T05:57:20;17.02;;;3.78;;
39098;SDS011;24844;52.380;7.018;2023-05-29T05:59:46;17.50;;;3.33;;
39098;SDS011;24844;52.380;7.018;2023-05-29T06:02:11;17.73;;;3.53;;
39098;SDS011;24844;52.380;7.018;2023-05-29T06:04:37;17.02;;;3.25;;
39098;SDS011;24844;52.380;7.018;2023-05-29T06:07:03;14.55;;;3.20;;
39098;SDS011;24844;52.380;7.018;2023-05-29T06:09:28;14.15;;;3.08;;
39098;SDS011;24844;52.380;7.018;2023-05-29T06:11:54;16.05;;;3.75;;
39098;SDS011;24844;52.380;7.018;2023-05-29T06:14:20;13.48;;;3.22;;
39098;SDS011;24844;52.380;7.018;2023-05-29T06:16:45;15.88;;;3.28;;
39098;SDS011;24844;52.380;7.018;2023-05-29T06:19:11;21.38;;;3.47;;
39098;SDS011;24844;52.380;7.018;2023-05-29T06:21:37;15.50;;;3.05;;
39098;SDS011;24844;52.380;7.018;2023-05-29T06:24:03;16.05;;;3.00;;
39098;SDS011;24844;52.380;7.018;2023-05-29T06:26:28;16.75;;;3.95;;
39098;SDS011;24844;52.380;7.018;2023-05-29T06:28:54;12.75;;;2.90;;
39098;SDS011;24844;52.380;7.018;2023-05-29T06:31:19;15.10;;;3.38;;
39098;SDS011;24844;52.380;7.018;2023-05-29T06:33:45;15.20;;;3.20;;
39098;SDS011;24844;52.380;7.018;2023-05-29T06:36:11;15.68;;;3.50;;
39098;SDS011;24844;52.380;7.018;2023-05-29T06:38:37;20.27;;;3.25;;
39098;SDS011;24844;52.380;7.018;2023-05-29T06:41:02;11.38;;;2.78;;
39098;SDS011;24844;52.380;7.018;2023-05-29T06:43:28;15.35;;;3.63;;
39098;SDS011;24844;52.380;7.018;2023-05-29T06:45:54;11.00;;;2.63;;
39098;SDS011;24844;52.380;7.018;2023-05-29T06:48:20;14.35;;;3.15;;
39098;SDS011;24844;52.380;7.018;2023-05-29T06:50:47;17.85;;;3.60;;
39098;SDS011;24844;52.380;7.018;2023-05-29T06:53:13;15.73;;;3.72;;
39098;SDS011;24844;52.380;7.018;2023-05-29T06:55:38;18.13;;;3.45;;
39098;SDS011;24844;52.380;7.018;2023-05-29T06:58:05;12.50;;;3.05;;
39098;SDS011;24844;52.380;7.018;2023-05-29T07:00:31;11.82;;;2.80;;
39098;SDS011;24844;52.380;7.018;2023-05-29T07:02:57;14.63;;;3.33;;
39098;SDS011;24844;52.380;7.018;2023-05-29T07:05:22;15.82;;;3.00;;
39098;SDS011;24844;52.380;7.018;2023-05-29T07:07:48;16.88;;;3.53;;
39098;SDS011;24844;52.380;7.018;2023-05-29T07:10:13;15.20;;;3.45;;
39098;SDS011;24844;52.380;7.018;2023-05-29T07:12:39;12.05;;;3.22;;
39098;SDS011;24844;52.380;7.018;2023-05-29T07:15:05;17.00;;;3.72;;
39098;SDS011;24844;52.380;7.018;2023-05-29T07:17:31;14.90;;;3.22;;
39098;SDS011;24844;52.380;7.018;2023-05-29T07:19:56;16.73;;;3.00;;
39098;SDS011;24844;52.380;7.018;2023-05-29T07:22:22;19.52;;;3.58;;
39098;SDS011;24844;52.380;7.018;2023-05-29T07:24:47;16.63;;;3.17;;
39098;SDS011;24844;52.380;7.018;2023-05-29T07:27:13;11.38;;;2.25;;
39098;SDS011;24844;52.380;7.018;2023-05-29T07:29:38;13.73;;;3.30;;
39098;SDS011;24844;52.380;7.018;2023-05-29T07:32:04;13.05;;;2.67;;
39098;SDS011;24844;52.380;7.018;2023-05-29T07:34:30;15.35;;;2.97;;
39098;SDS011;24844;52.380;7.018;2023-05-29T07:37:00;12.45;;;3.30;;
39098;SDS011;24844;52.380;7.018;2023-05-29T07:39:27;10.40;;;2.42;;
39098;SDS011;24844;52.380;7.018;2023-05-29T07:41:53;7.25;;;2.42;;
39098;SDS011;24844;52.380;7.018;2023-05-29T07:44:19;13.00;;;3.03;;
39098;SDS011;24844;52.380;7.018;2023-05-29T07:46:45;12.25;;;2.92;;
39098;SDS011;24844;52.380;7.018;2023-05-29T07:49:10;10.18;;;2.53;;
39098;SDS011;24844;52.380;7.018;2023-05-29T07:51:36;11.45;;;3.03;;
39098;SDS011;24844;52.380;7.018;2023-05-29T07:54:02;12.30;;;2.53;;
39098;SDS011;24844;52.380;7.018;2023-05-29T07:56:27;14.40;;;2.78;;
39098;SDS011;24844;52.380;7.018;2023-05-29T07:58:53;11.45;;;2.58;;
39098;SDS011;24844;52.380;7.018;2023-05-29T08:01:20;12.82;;;3.10;;
39098;SDS011;24844;52.380;7.018;2023-05-29T08:03:46;13.20;;;3.45;;
39098;SDS011;24844;52.380;7.018;2023-05-29T08:06:12;11.63;;;2.85;;
39098;SDS011;24844;52.380;7.018;2023-05-29T08:08:38;12.75;;;3.42;;
39098;SDS011;24844;52.380;7.018;2023-05-29T08:11:04;10.82;;;2.88;;
39098;SDS011;24844;52.380;7.018;2023-05-29T08:13:29;8.48;;;2.67;;
39098;SDS011;24844;52.380;7.018;2023-05-29T08:15:55;18.40;;;3.08;;
39098;SDS011;24844;52.380;7.018;2023-05-29T08:18:21;11.65;;;3.28;;
39098;SDS011;24844;52.380;7.018;2023-05-29T08:20:50;13.18;;;3.42;;
39098;SDS011;24844;52.380;7.018;2023-05-29T08:23:17;10.82;;;2.92;;
39098;SDS011;24844;52.380;7.018;2023-05-29T08:25:43;15.93;;;3.63;;
39098;SDS011;24844;52.380;7.018;2023-05-29T08:28:09;12.30;;;3.28;;
39098;SDS011;24844;52.380;7.018;2023-05-29T08:30:34;11.88;;;2.72;;
39098;SDS011;24844;52.380;7.018;2023-05-29T08:33:00;17.85;;;3.65;;
39098;SDS011;24844;52.380;7.018;2023-05-29T08:35:26;11.57;;;2.53;;
39098;SDS011;24844;52.380;7.018;2023-05-29T08:37:52;12.75;;;3.03;;
39098;SDS011;24844;52.380;7.018;2023-05-29T08:40:18;14.25;;;3.60;;
39098;SDS011;24844;52.380;7.018;2023-05-29T08:42:47;12.13;;;3.03;;
39098;SDS011;24844;52.380;7.018;2023-05-29T08:45:20;10.55;;;2.60;;
39098;SDS011;24844;52.380;7.018;2023-05-29T08:47:51;10.52;;;2.90;;
39098;SDS011;24844;52.380;7.018;2023-05-29T08:50:19;11.70;;;2.83;;
39098;SDS011;24844;52.380;7.018;2023-05-29T08:52:46;9.48;;;2.30;;
39098;SDS011;24844;52.380;7.018;2023-05-29T08:55:12;14.30;;;2.97;;
39098;SDS011;24844;52.380;7.018;2023-05-29T08:57:38;10.63;;;3.20;;
39098;SDS011;24844;52.380;7.018;2023-05-29T09:00:05;14.15;;;3.55;;
39098;SDS011;24844;52.380;7.018;2023-05-29T09:02:37;15.65;;;3.47;;
39098;SDS011;24844;52.380;7.018;2023-05-29T09:05:03;12.25;;;3.40;;
39098;SDS011;24844;52.380;7.018;2023-05-29T09:07:29;10.98;;;3.08;;
39098;SDS011;24844;52.380;7.018;2023-05-29T09:09:56;14.93;;;3.53;;
39098;SDS011;24844;52.380;7.018;2023-05-29T09:12:21;13.10;;;3.75;;
39098;SDS011;24844;52.380;7.018;2023-05-29T09:14:47;13.55;;;2.92;;
39098;SDS011;24844;52.380;7.018;2023-05-29T09:17:13;10.98;;;3.30;;
39098;SDS011;24844;52.380;7.018;2023-05-29T09:19:41;13.00;;;3.17;;
39098;SDS011;24844;52.380;7.018;2023-05-29T09:22:14;14.73;;;3.78;;
39098;SDS011;24844;52.380;7.018;2023-05-29T09:24:40;14.43;;;3.58;;
39098;SDS011;24844;52.380;7.018;2023-05-29T09:27:07;7.13;;;2.67;;
39098;SDS011;24844;52.380;7.018;2023-05-29T09:29:43;11.18;;;2.92;;
39098;SDS011;24844;52.380;7.018;2023-05-29T09:32:11;8.50;;;3.20;;
39098;SDS011;24844;52.380;7.018;2023-05-29T09:34:39;14.13;;;3.53;;
39098;SDS011;24844;52.380;7.018;2023-05-29T09:37:06;11.63;;;3.08;;
39098;SDS011;24844;52.380;7.018;2023-05-29T09:39:49;15.30;;;3.72;;
39098;SDS011;24844;52.380;7.018;2023-05-29T09:42:16;13.88;;;3.78;;
39098;SDS011;24844;52.380;7.018;2023-05-29T09:44:44;9.32;;;2.65;;
39098;SDS011;24844;52.380;7.018;2023-05-29T09:47:13;11.52;;;3.65;;
39098;SDS011;24844;52.380;7.018;2023-05-29T09:49:43;14.70;;;3.30;;
39098;SDS011;24844;52.380;7.018;2023-05-29T09:52:12;14.93;;;3.55;;
39098;SDS011;24844;52.380;7.018;2023-05-29T09:54:42;10.80;;;3.33;;
39098;SDS011;24844;52.380;7.018;2023-05-29T09:57:16;10.07;;;3.08;;
39098;SDS011;24844;52.380;7.018;2023-05-29T09:59:45;11.02;;;3.35;;
39098;SDS011;24844;52.380;7.018;2023-05-29T10:02:16;10.57;;;2.83;;
39098;SDS011;24844;52.380;7.018;2023-05-29T10:04:42;11.20;;;3.17;;
39098;SDS011;24844;52.380;7.018;2023-05-29T10:07:27;10.65;;;2.78;;
39098;SDS011;24844;52.380;7.018;2023-05-29T10:10:00;10.70;;;3.13;;
39098;SDS011;24844;52.380;7.018;2023-05-29T10:12:32;17.35;;;4.07;;
39098;SDS011;24844;52.380;7.018;2023-05-29T10:15:02;10.27;;;3.40;;
39098;SDS011;24844;52.380;7.018;2023-05-29T10:17:32;12.20;;;3.13;;
39098;SDS011;24844;52.380;7.018;2023-05-29T10:20:00;8.55;;;2.80;;
39098;SDS011;24844;52.380;7.018;2023-05-29T10:22:27;14.98;;;3.40;;
39098;SDS011;24844;52.380;7.018;2023-05-29T10:24:56;10.95;;;2.85;;
39098;SDS011;24844;52.380;7.018;2023-05-29T10:27:22;11.45;;;3.10;;
39098;SDS011;24844;52.380;7.018;2023-05-29T10:35:12;9.52;;;3.00;;
39098;SDS011;24844;52.380;7.018;2023-05-29T10:40:27;16.95;;;3.97;;
39098;SDS011;24844;52.380;7.018;2023-05-29T10:42:53;13.30;;;3.40;;
39098;SDS011;24844;52.380;7.018;2023-05-29T10:50:42;12.20;;;3.25;;
39098;SDS011;24844;52.380;7.018;2023-05-29T10:53:10;11.23;;;3.17;;
39098;SDS011;24844;52.380;7.018;2023-05-29T10:55:40;12.60;;;3.20;;
39098;SDS011;24844;52.380;7.018;2023-05-29T10:58:06;13.40;;;3.25;;
39098;SDS011;24844;52.380;7.018;2023-05-29T11:00:33;14.98;;;3.60;;
39098;SDS011;24844;52.380;7.018;2023-05-29T11:03:06;12.10;;;3.20;;
39098;SDS011;24844;52.380;7.018;2023-05-29T11:05:33;11.40;;;3.35;;
39098;SDS011;24844;52.380;7.018;2023-05-29T11:07:59;12.10;;;3.30;;
39098;SDS011;24844;52.380;7.018;2023-05-29T11:13:34;16.77;;;3.90;;
39098;SDS011;24844;52.380;7.018;2023-05-29T11:16:10;12.10;;;3.50;;
39098;SDS011;24844;52.380;7.018;2023-05-29T11:18:46;11.18;;;2.90;;
39098;SDS011;24844;52.380;7.018;2023-05-29T11:21:23;13.82;;;3.30;;
39098;SDS011;24844;52.380;7.018;2023-05-29T11:23:50;13.00;;;2.70;;
39098;SDS011;24844;52.380;7.018;2023-05-29T11:26:18;10.55;;;3.17;;
39098;SDS011;24844;52.380;7.018;2023-05-29T11:28:45;12.55;;;3.30;;
39098;SDS011;24844;52.380;7.018;2023-05-29T11:31:11;11.90;;;3.22;;
39098;SDS011;24844;52.380;7.018;2023-05-29T11:33:39;12.75;;;3.33;;
39098;SDS011;24844;52.380;7.018;2023-05-29T11:36:08;12.02;;;3.30;;
39098;SDS011;24844;52.380;7.018;2023-05-29T11:38:35;12.40;;;3.03;;
39098;SDS011;24844;52.380;7.018;2023-05-29T11:41:01;10.85;;;2.78;;
39098;SDS011;24844;52.380;7.018;2023-05-29T11:43:28;15.43;;;3.85;;
39098;SDS011;24844;52.380;7.018;2023-05-29T11:45:53;8.98;;;3.10;;
39098;SDS011;24844;52.380;7.018;2023-05-29T11:48:19;14.80;;;3.70;;
39098;SDS011;24844;52.380;7.018;2023-05-29T11:50:45;13.65;;;3.28;;
39098;SDS011;24844;52.380;7.018;2023-05-29T11:53:11;9.95;;;3.05;;
39098;SDS011;24844;52.380;7.018;2023-05-29T11:55:36;14.57;;;3.35;;
39098;SDS011;24844;52.380;7.018;2023-05-29T11:58:03;9.35;;;2.88;;
39098;SDS011;24844;52.380;7.018;2023-05-29T12:00:38;13.85;;;3.40;;
39098;SDS011;24844;52.380;7.018;2023-05-29T12:03:05;10.50;;;3.00;;
39098;SDS011;24844;52.380;7.018;2023-05-29T12:08:11;13.32;;;3.22;;
39098;SDS011;24844;52.380;7.018;2023-05-29T12:10:37;11.75;;;3.05;;
39098;SDS011;24844;52.380;7.018;2023-05-29T12:13:11;13.50;;;3.10;;
39098;SDS011;24844;52.380;7.018;2023-05-29T12:15:36;13.32;;;3.65;;
39098;SDS011;24844;52.380;7.018;2023-05-29T12:18:02;12.40;;;3.03;;
39098;SDS011;24844;52.380;7.018;2023-05-29T12:20:27;13.75;;;3.30;;
39098;SDS011;24844;52.380;7.018;2023-05-29T12:22:54;11.35;;;3.17;;
39098;SDS011;24844;52.380;7.018;2023-05-29T12:25:25;16.05;;;3.92;;
39098;SDS011;24844;52.380;7.018;2023-05-29T12:27:51;17.55;;;3.42;;
39098;SDS011;24844;52.380;7.018;2023-05-29T12:32:46;14.45;;;3.30;;
39098;SDS011;24844;52.380;7.018;2023-05-29T12:35:18;11.93;;;3.58;;
39098;SDS011;24844;52.380;7.018;2023-05-29T12:37:48;12.43;;;3.80;;
39098;SDS011;24844;52.380;7.018;2023-05-29T12:40:22;13.13;;;3.33;;
39098;SDS011;24844;52.380;7.018;2023-05-29T12:42:53;12.50;;;3.22;;
39098;SDS011;24844;52.380;7.018;2023-05-29T12:45:21;10.20;;;2.97;;
39098;SDS011;24844;52.380;7.018;2023-05-29T12:47:57;16.40;;;3.90;;
39098;SDS011;24844;52.380;7.018;2023-05-29T12:50:48;19.30;;;3.70;;
39098;SDS011;24844;52.380;7.018;2023-05-29T12:53:14;16.63;;;3.22;;
39098;SDS011;24844;52.380;7.018;2023-05-29T12:55:41;10.55;;;3.15;;
39098;SDS011;24844;52.380;7.018;2023-05-29T12:58:08;14.43;;;3.40;;
39098;SDS011;24844;52.380;7.018;2023-05-29T13:00:39;14.77;;;3.35;;
39098;SDS011;24844;52.380;7.018;2023-05-29T13:03:07;20.52;;;3.58;;
39098;SDS011;24844;52.380;7.018;2023-05-29T13:05:33;14.52;;;3.10;;
39098;SDS011;24844;52.380;7.018;2023-05-29T13:07:59;22.55;;;3.45;;
39098;SDS011;24844;52.380;7.018;2023-05-29T13:10:25;11.23;;;2.97;;
39098;SDS011;24844;52.380;7.018;2023-05-29T13:12:52;12.93;;;3.10;;
39098;SDS011;24844;52.380;7.018;2023-05-29T13:15:20;12.90;;;3.20;;
39098;SDS011;24844;52.380;7.018;2023-05-29T13:17:47;10.95;;;3.05;;
39098;SDS011;24844;52.380;7.018;2023-05-29T13:20:13;12.63;;;2.85;;
39098;SDS011;24844;52.380;7.018;2023-05-29T13:22:40;11.38;;;2.58;;
39098;SDS011;24844;52.380;7.018;2023-05-29T13:25:07;12.25;;;3.15;;
39098;SDS011;24844;52.380;7.018;2023-05-29T13:27:35;10.30;;;2.90;;
39098;SDS011;24844;52.380;7.018;2023-05-29T13:30:02;11.15;;;3.33;;
39098;SDS011;24844;52.380;7.018;2023-05-29T13:32:28;20.05;;;3.55;;
39098;SDS011;24844;52.380;7.018;2023-05-29T13:34:54;11.55;;;2.95;;
39098;SDS011;24844;52.380;7.018;2023-05-29T13:37:20;12.90;;;3.47;;
39098;SDS011;24844;52.380;7.018;2023-05-29T13:39:46;15.35;;;3.20;;
39098;SDS011;24844;52.380;7.018;2023-05-29T13:42:11;14.57;;;2.88;;
39098;SDS011;24844;52.380;7.018;2023-05-29T13:44:37;13.43;;;2.85;;
39098;SDS011;24844;52.380;7.018;2023-05-29T13:47:04;11.18;;;3.10;;
39098;SDS011;24844;52.380;7.018;2023-05-29T13:49:30;10.48;;;3.03;;
39098;SDS011;24844;52.380;7.018;2023-05-29T13:51:56;12.63;;;3.00;;
39098;SDS011;24844;52.380;7.018;2023-05-29T13:54:21;19.52;;;4.38;;
39098;SDS011;24844;52.380;7.018;2023-05-29T13:56:47;14.13;;;3.55;;
39098;SDS011;24844;52.380;7.018;2023-05-29T13:59:13;13.45;;;2.97;;
39098;SDS011;24844;52.380;7.018;2023-05-29T14:01:39;14.27;;;2.88;;
39098;SDS011;24844;52.380;7.018;2023-05-29T14:04:05;11.23;;;2.97;;
39098;SDS011;24844;52.380;7.018;2023-05-29T14:06:31;13.90;;;3.20;;
39098;SDS011;24844;52.380;7.018;2023-05-29T14:08:58;8.88;;;2.65;;
39098;SDS011;24844;52.380;7.018;2023-05-29T14:11:23;12.85;;;3.05;;
39098;SDS011;24844;52.380;7.018;2023-05-29T14:13:50;8.32;;;2.53;;
39098;SDS011;24844;52.380;7.018;2023-05-29T14:16:15;12.15;;;2.80;;
39098;SDS011;24844;52.380;7.018;2023-05-29T14:18:41;13.00;;;3.15;;
39098;SDS011;24844;52.380;7.018;2023-05-29T14:21:07;13.77;;;3.40;;
39098;SDS011;24844;52.380;7.018;2023-05-29T14:23:33;14.20;;;3.20;;
39098;SDS011;24844;52.380;7.018;2023-05-29T14:25:59;11.15;;;3.28;;
39098;SDS011;24844;52.380;7.018;2023-05-29T14:28:26;14.55;;;3.20;;
39098;SDS011;24844;52.380;7.018;2023-05-29T14:30:51;13.07;;;3.17;;
39098;SDS011;24844;52.380;7.018;2023-05-29T14:33:17;14.93;;;3.10;;
39098;SDS011;24844;52.380;7.018;2023-05-29T14:35:42;11.80;;;3.10;;
39098;SDS011;24844;52.380;7.018;2023-05-29T14:38:08;10.75;;;2.63;;
39098;SDS011;24844;52.380;7.018;2023-05-29T14:40:34;11.85;;;2.40;;
39098;SDS011;24844;52.380;7.018;2023-05-29T14:43:00;10.75;;;2.78;;
39098;SDS011;24844;52.380;7.018;2023-05-29T14:45:26;11.00;;;2.40;;
39098;SDS011;24844;52.380;7.018;2023-05-29T14:47:52;9.32;;;2.60;;
39098;SDS011;24844;52.380;7.018;2023-05-29T14:50:17;11.25;;;2.47;;
39098;SDS011;24844;52.380;7.018;2023-05-29T14:52:43;10.45;;;2.55;;
39098;SDS011;24844;52.380;7.018;2023-05-29T14:55:08;16.30;;;2.80;;
39098;SDS011;24844;52.380;7.018;2023-05-29T14:57:34;10.73;;;2.30;;
39098;SDS011;24844;52.380;7.018;2023-05-29T15:00:01;11.35;;;2.50;;
39098;SDS011;24844;52.380;7.018;2023-05-29T15:02:27;9.43;;;2.30;;
39098;SDS011;24844;52.380;7.018;2023-05-29T15:04:52;12.98;;;2.47;;
39098;SDS011;24844;52.380;7.018;2023-05-29T15:07:19;6.78;;;2.00;;
39098;SDS011;24844;52.380;7.018;2023-05-29T15:09:45;9.77;;;2.40;;